sensor_id;sensor_type;location;lat;lon;timestamp;temperature;humidity
27200;DHT22;14714;48.106;11.546;2022-12-18T00:02:13;-3.10;99.90
27200;DHT22;14714;48.106;11.546;2022-12-18T00:04:39;-3.10;99.90
27200;DHT22;14714;48.106;11.546;2022-12-18T00:07:06;-3.10;99.90
27200;DHT22;14714;48.106;11.546;2022-12-18T00:09:33;-3.10;99.90
27200;DHT22;14714;48.106;11.546;2022-12-18T00:12:06;-3.20;99.90
27200;DHT22;14714;48.106;11.546;2022-12-18T00:14:41;-3.10;99.90
27200;DHT22;14714;48.106;11.546;2022-12-18T00:17:08;-3.10;99.90
27200;DHT22;14714;48.106;11.546;2022-12-18T00:19:35;-3.10;99.90
27200;DHT22;14714;48.106;11.546;2022-12-18T00:22:02;-3.10;99.90
27200;DHT22;14714;48.106;11.546;2022-12-18T00:24:29;-3.20;99.90
27200;DHT22;14714;48.106;11.546;2022-12-18T00:26:55;-3.20;99.90
27200;DHT22;14714;48.106;11.546;2022-12-18T00:29:22;-3.20;99.90
27200;DHT22;14714;48.106;11.546;2022-12-18T00:31:49;-3.20;99.90
27200;DHT22;14714;48.106;11.546;2022-12-18T00:34:16;-3.20;99.90
27200;DHT22;14714;48.106;11.546;2022-12-18T00:36:42;-3.20;99.90
27200;DHT22;14714;48.106;11.546;2022-12-18T00:39:10;-3.20;99.90
27200;DHT22;14714;48.106;11.546;2022-12-18T00:41:37;-3.20;99.90
27200;DHT22;14714;48.106;11.546;2022-12-18T00:44:22;-3.20;99.90
27200;DHT22;14714;48.106;11.546;2022-12-18T00:46:49;-3.20;99.90
27200;DHT22;14714;48.106;11.546;2022-12-18T00:49:18;-3.20;99.90
27200;DHT22;14714;48.106;11.546;2022-12-18T00:51:46;-3.20;99.90
27200;DHT22;14714;48.106;11.546;2022-12-18T00:54:13;-3.20;99.90
27200;DHT22;14714;48.106;11.546;2022-12-18T00:56:40;-3.20;99.90
27200;DHT22;14714;48.106;11.546;2022-12-18T00:59:17;-3.20;99.90
27200;DHT22;14714;48.106;11.546;2022-12-18T01:01:45;-3.20;99.90
27200;DHT22;14714;48.106;11.546;2022-12-18T01:04:12;-3.20;99.90
27200;DHT22;14714;48.106;11.546;2022-12-18T01:06:39;-3.20;99.90
27200;DHT22;14714;48.106;11.546;2022-12-18T01:09:06;-3.20;99.90
27200;DHT22;14714;48.106;11.546;2022-12-18T01:11:32;-3.20;99.90
27200;DHT22;14714;48.106;11.546;2022-12-18T01:13:59;-3.30;99.90
27200;DHT22;14714;48.106;11.546;2022-12-18T01:16:26;-3.30;99.90
27200;DHT22;14714;48.106;11.546;2022-12-18T01:18:54;-3.30;99.90
27200;DHT22;14714;48.106;11.546;2022-12-18T01:21:22;-3.30;99.90
27200;DHT22;14714;48.106;11.546;2022-12-18T01:23:54;-3.30;99.90
27200;DHT22;14714;48.106;11.546;2022-12-18T01:26:21;-3.30;99.90
27200;DHT22;14714;48.106;11.546;2022-12-18T01:28:48;-3.30;99.90
27200;DHT22;14714;48.106;11.546;2022-12-18T01:31:21;-3.30;99.90
27200;DHT22;14714;48.106;11.546;2022-12-18T01:33:48;-3.20;99.90
27200;DHT22;14714;48.106;11.546;2022-12-18T01:36:21;-3.30;99.90
27200;DHT22;14714;48.106;11.546;2022-12-18T01:38:49;-3.30;99.90
27200;DHT22;14714;48.106;11.546;2022-12-18T01:41:23;-3.30;99.90
27200;DHT22;14714;48.106;11.546;2022-12-18T01:43:57;-3.30;99.90
27200;DHT22;14714;48.106;11.546;2022-12-18T01:46:24;-3.30;99.90
27200;DHT22;14714;48.106;11.546;2022-12-18T01:48:58;-3.30;99.90
27200;DHT22;14714;48.106;11.546;2022-12-18T01:51:27;-3.30;99.90
27200;DHT22;14714;48.106;11.546;2022-12-18T01:53:54;-3.30;99.90
27200;DHT22;14714;48.106;11.546;2022-12-18T01:56:21;-3.20;99.90
27200;DHT22;14714;48.106;11.546;2022-12-18T01:58:59;-3.20;99.90
27200;DHT22;14714;48.106;11.546;2022-12-18T02:01:29;-3.20;99.90
27200;DHT22;14714;48.106;11.546;2022-12-18T02:04:13;-3.20;99.90
27200;DHT22;14714;48.106;11.546;2022-12-18T02:06:45;-3.30;99.90
27200;DHT22;14714;48.106;11.546;2022-12-18T02:09:20;-3.20;99.90
27200;DHT22;14714;48.106;11.546;2022-12-18T02:11:57;-3.20;99.90
27200;DHT22;14714;48.106;11.546;2022-12-18T02:15:19;-3.20;99.90
27200;DHT22;14714;48.106;11.546;2022-12-18T02:25:58;-3.30;99.90
27200;DHT22;14714;48.106;11.546;2022-12-18T02:28:32;-3.40;99.90
27200;DHT22;14714;48.106;11.546;2022-12-18T02:31:02;-3.40;99.90
27200;DHT22;14714;48.106;11.546;2022-12-18T02:33:32;-3.40;99.90
27200;DHT22;14714;48.106;11.546;2022-12-18T02:36:00;-3.50;99.90
27200;DHT22;14714;48.106;11.546;2022-12-18T02:38:29;-3.50;99.90
27200;DHT22;14714;48.106;11.546;2022-12-18T02:40:57;-3.50;99.90
27200;DHT22;14714;48.106;11.546;2022-12-18T02:43:24;-3.60;99.90
27200;DHT22;14714;48.106;11.546;2022-12-18T02:45:54;-3.50;99.90
27200;DHT22;14714;48.106;11.546;2022-12-18T02:48:32;-3.50;99.90
27200;DHT22;14714;48.106;11.546;2022-12-18T02:51:18;-3.50;99.90
27200;DHT22;14714;48.106;11.546;2022-12-18T02:53:50;-3.50;99.90
27200;DHT22;14714;48.106;11.546;2022-12-18T02:56:23;-3.50;99.90
27200;DHT22;14714;48.106;11.546;2022-12-18T02:59:02;-3.50;99.90
27200;DHT22;14714;48.106;11.546;2022-12-18T03:02:17;-3.40;99.90
27200;DHT22;14714;48.106;11.546;2022-12-18T03:04:45;-3.40;99.90
27200;DHT22;14714;48.106;11.546;2022-12-18T03:07:20;-3.40;99.90
27200;DHT22;14714;48.106;11.546;2022-12-18T03:09:50;-3.40;99.90
27200;DHT22;14714;48.106;11.546;2022-12-18T03:12:32;-3.40;99.90
27200;DHT22;14714;48.106;11.546;2022-12-18T03:15:14;-3.40;99.90
27200;DHT22;14714;48.106;11.546;2022-12-18T03:17:52;-3.40;99.90
27200;DHT22;14714;48.106;11.546;2022-12-18T03:20:25;-3.40;99.90
27200;DHT22;14714;48.106;11.546;2022-12-18T03:22:57;-3.40;99.90
27200;DHT22;14714;48.106;11.546;2022-12-18T03:25:26;-3.40;99.90
27200;DHT22;14714;48.106;11.546;2022-12-18T03:27:56;-3.40;99.90
27200;DHT22;14714;48.106;11.546;2022-12-18T03:30:26;-3.30;99.90
27200;DHT22;14714;48.106;11.546;2022-12-18T03:33:09;-3.40;99.90
27200;DHT22;14714;48.106;11.546;2022-12-18T03:35:42;-3.40;99.90
27200;DHT22;14714;48.106;11.546;2022-12-18T03:38:10;-3.40;99.90
27200;DHT22;14714;48.106;11.546;2022-12-18T03:40:59;-3.40;99.90
27200;DHT22;14714;48.106;11.546;2022-12-18T03:49:33;-3.40;99.90
27200;DHT22;14714;48.106;11.546;2022-12-18T03:52:11;-3.30;99.90
27200;DHT22;14714;48.106;11.546;2022-12-18T03:54:41;-3.30;99.90
27200;DHT22;14714;48.106;11.546;2022-12-18T03:57:24;-3.20;99.90
27200;DHT22;14714;48.106;11.546;2022-12-18T03:59:56;-3.20;99.90
27200;DHT22;14714;48.106;11.546;2022-12-18T04:02:24;-3.20;99.90
27200;DHT22;14714;48.106;11.546;2022-12-18T04:04:53;-3.10;99.90
27200;DHT22;14714;48.106;11.546;2022-12-18T04:07:24;-3.10;99.90
27200;DHT22;14714;48.106;11.546;2022-12-18T04:09:53;-3.10;99.90
27200;DHT22;14714;48.106;11.546;2022-12-18T04:12:26;-3.10;99.90
27200;DHT22;14714;48.106;11.546;2022-12-18T04:14:55;-3.20;99.90
27200;DHT22;14714;48.106;11.546;2022-12-18T04:17:22;-3.20;99.90
27200;DHT22;14714;48.106;11.546;2022-12-18T04:19:49;-3.20;99.90
27200;DHT22;14714;48.106;11.546;2022-12-18T04:22:15;-3.10;99.90
27200;DHT22;14714;48.106;11.546;2022-12-18T04:24:42;-3.10;99.90
27200;DHT22;14714;48.106;11.546;2022-12-18T04:27:09;-3.10;99.90
27200;DHT22;14714;48.106;11.546;2022-12-18T04:29:36;-3.10;99.90
27200;DHT22;14714;48.106;11.546;2022-12-18T04:32:02;-3.10;99.90
27200;DHT22;14714;48.106;11.546;2022-12-18T04:34:29;-3.00;99.90
27200;DHT22;14714;48.106;11.546;2022-12-18T04:36:56;-3.10;99.90
27200;DHT22;14714;48.106;11.546;2022-12-18T04:39:23;-3.10;99.90
27200;DHT22;14714;48.106;11.546;2022-12-18T04:41:51;-3.10;99.90
27200;DHT22;14714;48.106;11.546;2022-12-18T04:44:17;-3.10;99.90
27200;DHT22;14714;48.106;11.546;2022-12-18T04:46:44;-3.00;99.90
27200;DHT22;14714;48.106;11.546;2022-12-18T04:49:11;-3.00;99.90
27200;DHT22;14714;48.106;11.546;2022-12-18T04:51:38;-3.00;99.90
27200;DHT22;14714;48.106;11.546;2022-12-18T04:54:05;-3.00;99.90
27200;DHT22;14714;48.106;11.546;2022-12-18T04:56:32;-3.10;99.90
27200;DHT22;14714;48.106;11.546;2022-12-18T04:58:59;-3.10;99.90
27200;DHT22;14714;48.106;11.546;2022-12-18T05:01:26;-3.10;99.90
27200;DHT22;14714;48.106;11.546;2022-12-18T05:04:00;-3.10;99.90
27200;DHT22;14714;48.106;11.546;2022-12-18T05:06:27;-3.10;99.90
27200;DHT22;14714;48.106;11.546;2022-12-18T05:08:54;-3.10;99.90
27200;DHT22;14714;48.106;11.546;2022-12-18T05:11:21;-3.20;99.90
27200;DHT22;14714;48.106;11.546;2022-12-18T05:13:48;-3.20;99.90
27200;DHT22;14714;48.106;11.546;2022-12-18T05:16:15;-3.20;99.90
27200;DHT22;14714;48.106;11.546;2022-12-18T05:18:42;-3.20;99.90
27200;DHT22;14714;48.106;11.546;2022-12-18T05:21:08;-3.20;99.90
27200;DHT22;14714;48.106;11.546;2022-12-18T05:23:36;-3.30;99.90
27200;DHT22;14714;48.106;11.546;2022-12-18T05:26:05;-3.30;99.90
27200;DHT22;14714;48.106;11.546;2022-12-18T05:28:35;-3.30;99.90
27200;DHT22;14714;48.106;11.546;2022-12-18T05:31:03;-3.30;99.90
27200;DHT22;14714;48.106;11.546;2022-12-18T05:33:32;-3.30;99.90
27200;DHT22;14714;48.106;11.546;2022-12-18T05:36:05;-3.20;99.90
27200;DHT22;14714;48.106;11.546;2022-12-18T05:38:34;-3.20;99.90
27200;DHT22;14714;48.106;11.546;2022-12-18T05:41:01;-3.20;99.90
27200;DHT22;14714;48.106;11.546;2022-12-18T05:43:28;-3.20;99.90
27200;DHT22;14714;48.106;11.546;2022-12-18T05:45:56;-3.20;99.90
27200;DHT22;14714;48.106;11.546;2022-12-18T05:48:24;-3.20;99.90
27200;DHT22;14714;48.106;11.546;2022-12-18T05:50:51;-3.20;99.90
27200;DHT22;14714;48.106;11.546;2022-12-18T05:53:19;-3.20;99.90
27200;DHT22;14714;48.106;11.546;2022-12-18T05:55:47;-3.30;99.90
27200;DHT22;14714;48.106;11.546;2022-12-18T05:58:14;-3.20;99.90
27200;DHT22;14714;48.106;11.546;2022-12-18T06:00:44;-3.30;99.90
27200;DHT22;14714;48.106;11.546;2022-12-18T06:03:12;-3.30;99.90
27200;DHT22;14714;48.106;11.546;2022-12-18T06:05:43;-3.40;99.90
27200;DHT22;14714;48.106;11.546;2022-12-18T06:08:11;-3.50;99.90
27200;DHT22;14714;48.106;11.546;2022-12-18T06:10:38;-3.50;99.90
27200;DHT22;14714;48.106;11.546;2022-12-18T06:13:06;-3.50;99.90
27200;DHT22;14714;48.106;11.546;2022-12-18T06:15:35;-3.60;99.90
27200;DHT22;14714;48.106;11.546;2022-12-18T06:18:02;-3.60;99.90
27200;DHT22;14714;48.106;11.546;2022-12-18T06:20:30;-3.60;99.90
27200;DHT22;14714;48.106;11.546;2022-12-18T06:22:59;-3.60;99.90
27200;DHT22;14714;48.106;11.546;2022-12-18T06:25:26;-3.60;99.90
27200;DHT22;14714;48.106;11.546;2022-12-18T06:27:53;-3.60;99.90
27200;DHT22;14714;48.106;11.546;2022-12-18T06:30:20;-3.60;99.90
27200;DHT22;14714;48.106;11.546;2022-12-18T06:32:48;-3.60;99.90
27200;DHT22;14714;48.106;11.546;2022-12-18T06:35:22;-3.60;99.90
27200;DHT22;14714;48.106;11.546;2022-12-18T06:37:49;-3.60;99.90
27200;DHT22;14714;48.106;11.546;2022-12-18T06:40:16;-3.70;99.90
27200;DHT22;14714;48.106;11.546;2022-12-18T06:42:43;-3.70;99.90
27200;DHT22;14714;48.106;11.546;2022-12-18T06:45:10;-3.70;99.90
27200;DHT22;14714;48.106;11.546;2022-12-18T06:47:37;-3.80;99.90
27200;DHT22;14714;48.106;11.546;2022-12-18T06:50:04;-3.80;99.90
27200;DHT22;14714;48.106;11.546;2022-12-18T06:52:32;-3.80;99.90
27200;DHT22;14714;48.106;11.546;2022-12-18T06:54:59;-3.80;99.90
27200;DHT22;14714;48.106;11.546;2022-12-18T06:57:26;-3.70;99.90
27200;DHT22;14714;48.106;11.546;2022-12-18T06:59:53;-3.70;99.90
27200;DHT22;14714;48.106;11.546;2022-12-18T07:02:20;-3.70;99.90
27200;DHT22;14714;48.106;11.546;2022-12-18T07:04:47;-3.70;99.90
27200;DHT22;14714;48.106;11.546;2022-12-18T07:07:13;-3.70;99.90
27200;DHT22;14714;48.106;11.546;2022-12-18T07:09:40;-3.80;99.90
27200;DHT22;14714;48.106;11.546;2022-12-18T07:12:07;-3.80;99.90
27200;DHT22;14714;48.106;11.546;2022-12-18T07:14:34;-3.80;99.90
27200;DHT22;14714;48.106;11.546;2022-12-18T07:17:01;-3.80;99.90
27200;DHT22;14714;48.106;11.546;2022-12-18T07:19:28;-3.80;99.90
27200;DHT22;14714;48.106;11.546;2022-12-18T07:21:56;-3.80;99.90
27200;DHT22;14714;48.106;11.546;2022-12-18T07:24:23;-3.80;99.90
27200;DHT22;14714;48.106;11.546;2022-12-18T07:26:49;-3.80;99.90
27200;DHT22;14714;48.106;11.546;2022-12-18T07:29:16;-3.80;99.90
27200;DHT22;14714;48.106;11.546;2022-12-18T07:31:43;-3.70;99.90
27200;DHT22;14714;48.106;11.546;2022-12-18T07:34:11;-3.70;99.90
27200;DHT22;14714;48.106;11.546;2022-12-18T07:36:39;-3.70;99.90
27200;DHT22;14714;48.106;11.546;2022-12-18T07:39:05;-3.70;99.90
27200;DHT22;14714;48.106;11.546;2022-12-18T07:41:32;-3.60;99.90
27200;DHT22;14714;48.106;11.546;2022-12-18T07:43:59;-3.60;99.90
27200;DHT22;14714;48.106;11.546;2022-12-18T07:46:26;-3.70;99.90
27200;DHT22;14714;48.106;11.546;2022-12-18T07:48:53;-3.70;99.90
27200;DHT22;14714;48.106;11.546;2022-12-18T07:51:20;-3.70;99.90
27200;DHT22;14714;48.106;11.546;2022-12-18T07:53:47;-3.70;99.90
27200;DHT22;14714;48.106;11.546;2022-12-18T07:56:18;-3.70;99.90
27200;DHT22;14714;48.106;11.546;2022-12-18T07:58:55;-3.70;99.90
27200;DHT22;14714;48.106;11.546;2022-12-18T08:01:22;-3.70;99.90
27200;DHT22;14714;48.106;11.546;2022-12-18T08:03:49;-3.70;99.90
27200;DHT22;14714;48.106;11.546;2022-12-18T08:06:18;-3.70;99.90
27200;DHT22;14714;48.106;11.546;2022-12-18T08:08:48;-3.60;99.90
27200;DHT22;14714;48.106;11.546;2022-12-18T08:11:15;-3.60;99.90
27200;DHT22;14714;48.106;11.546;2022-12-18T08:13:42;-3.60;99.90
27200;DHT22;14714;48.106;11.546;2022-12-18T08:16:09;-3.60;99.90
27200;DHT22;14714;48.106;11.546;2022-12-18T08:18:37;-3.50;99.90
27200;DHT22;14714;48.106;11.546;2022-12-18T08:21:12;-3.40;99.90
27200;DHT22;14714;48.106;11.546;2022-12-18T08:23:39;-3.30;99.90
27200;DHT22;14714;48.106;11.546;2022-12-18T08:26:10;-3.20;99.90
27200;DHT22;14714;48.106;11.546;2022-12-18T08:28:37;-3.20;99.90
27200;DHT22;14714;48.106;11.546;2022-12-18T08:31:04;-3.20;99.90
27200;DHT22;14714;48.106;11.546;2022-12-18T08:33:32;-3.10;99.90
27200;DHT22;14714;48.106;11.546;2022-12-18T08:35:59;-3.00;99.90
27200;DHT22;14714;48.106;11.546;2022-12-18T08:38:26;-3.00;99.90
27200;DHT22;14714;48.106;11.546;2022-12-18T08:41:04;-2.90;99.90
27200;DHT22;14714;48.106;11.546;2022-12-18T08:43:31;-2.80;99.90
27200;DHT22;14714;48.106;11.546;2022-12-18T08:46:17;-2.70;99.90
27200;DHT22;14714;48.106;11.546;2022-12-18T08:48:44;-2.60;99.90
27200;DHT22;14714;48.106;11.546;2022-12-18T08:51:11;-2.50;99.90
27200;DHT22;14714;48.106;11.546;2022-12-18T08:53:38;-2.50;99.90
27200;DHT22;14714;48.106;11.546;2022-12-18T08:56:06;-2.50;99.90
27200;DHT22;14714;48.106;11.546;2022-12-18T08:58:33;-2.60;99.90
27200;DHT22;14714;48.106;11.546;2022-12-18T09:01:01;-2.60;99.90
27200;DHT22;14714;48.106;11.546;2022-12-18T09:03:28;-2.70;99.90
27200;DHT22;14714;48.106;11.546;2022-12-18T09:05:55;-2.70;99.90
27200;DHT22;14714;48.106;11.546;2022-12-18T09:08:22;-2.80;99.90
27200;DHT22;14714;48.106;11.546;2022-12-18T09:10:50;-2.80;99.90
27200;DHT22;14714;48.106;11.546;2022-12-18T09:13:17;-2.90;99.90
27200;DHT22;14714;48.106;11.546;2022-12-18T09:15:53;-2.90;99.90
27200;DHT22;14714;48.106;11.546;2022-12-18T09:18:21;-2.80;99.90
27200;DHT22;14714;48.106;11.546;2022-12-18T09:20:48;-2.80;99.90
27200;DHT22;14714;48.106;11.546;2022-12-18T09:23:18;-2.70;99.90
27200;DHT22;14714;48.106;11.546;2022-12-18T09:25:45;-2.60;99.90
27200;DHT22;14714;48.106;11.546;2022-12-18T09:28:13;-2.50;99.90
27200;DHT22;14714;48.106;11.546;2022-12-18T09:30:43;-2.50;99.90
27200;DHT22;14714;48.106;11.546;2022-12-18T09:33:10;-2.40;99.90
27200;DHT22;14714;48.106;11.546;2022-12-18T09:35:38;-2.30;99.90
27200;DHT22;14714;48.106;11.546;2022-12-18T09:38:05;-2.20;99.90
27200;DHT22;14714;48.106;11.546;2022-12-18T09:40:53;-2.20;99.90
27200;DHT22;14714;48.106;11.546;2022-12-18T09:43:30;-2.10;99.90
27200;DHT22;14714;48.106;11.546;2022-12-18T09:46:04;-1.90;99.90
27200;DHT22;14714;48.106;11.546;2022-12-18T09:48:36;-1.90;99.90
27200;DHT22;14714;48.106;11.546;2022-12-18T09:54:06;-2.10;99.90
27200;DHT22;14714;48.106;11.546;2022-12-18T09:56:40;-2.20;99.90
27200;DHT22;14714;48.106;11.546;2022-12-18T09:59:25;-2.10;99.90
27200;DHT22;14714;48.106;11.546;2022-12-18T10:01:53;-2.10;99.90
27200;DHT22;14714;48.106;11.546;2022-12-18T10:04:20;-2.00;99.90
27200;DHT22;14714;48.106;11.546;2022-12-18T10:09:31;-1.90;99.90
27200;DHT22;14714;48.106;11.546;2022-12-18T10:12:25;-1.90;99.90
27200;DHT22;14714;48.106;11.546;2022-12-18T10:20:49;-1.90;99.90
27200;DHT22;14714;48.106;11.546;2022-12-18T10:23:33;-2.00;99.90
27200;DHT22;14714;48.106;11.546;2022-12-18T10:26:13;-2.00;99.90
27200;DHT22;14714;48.106;11.546;2022-12-18T10:28:41;-1.90;99.90
27200;DHT22;14714;48.106;11.546;2022-12-18T10:31:18;-1.90;99.90
27200;DHT22;14714;48.106;11.546;2022-12-18T10:33:45;-2.00;99.90
27200;DHT22;14714;48.106;11.546;2022-12-18T10:36:12;-2.10;99.90
27200;DHT22;14714;48.106;11.546;2022-12-18T10:38:39;-2.10;99.90
27200;DHT22;14714;48.106;11.546;2022-12-18T10:43:51;-1.90;99.90
27200;DHT22;14714;48.106;11.546;2022-12-18T10:46:35;-1.80;99.90
27200;DHT22;14714;48.106;11.546;2022-12-18T10:49:02;-1.60;99.90
27200;DHT22;14714;48.106;11.546;2022-12-18T10:51:36;-1.50;99.90
27200;DHT22;14714;48.106;11.546;2022-12-18T10:54:07;-1.40;99.90
27200;DHT22;14714;48.106;11.546;2022-12-18T10:56:39;-1.40;99.90
27200;DHT22;14714;48.106;11.546;2022-12-18T10:59:09;-1.40;99.90
27200;DHT22;14714;48.106;11.546;2022-12-18T11:01:56;-1.30;99.90
27200;DHT22;14714;48.106;11.546;2022-12-18T11:04:27;-1.20;99.90
27200;DHT22;14714;48.106;11.546;2022-12-18T11:07:07;-1.10;99.90
27200;DHT22;14714;48.106;11.546;2022-12-18T11:09:39;-1.30;99.90
27200;DHT22;14714;48.106;11.546;2022-12-18T11:12:16;-1.30;99.90
27200;DHT22;14714;48.106;11.546;2022-12-18T11:14:49;-1.40;99.90
27200;DHT22;14714;48.106;11.546;2022-12-18T11:17:32;-1.40;99.90
27200;DHT22;14714;48.106;11.546;2022-12-18T11:20:05;-1.30;99.90
27200;DHT22;14714;48.106;11.546;2022-12-18T11:22:35;-1.40;99.90
27200;DHT22;14714;48.106;11.546;2022-12-18T11:25:06;-1.40;99.90
27200;DHT22;14714;48.106;11.546;2022-12-18T11:28:04;-1.40;99.90
27200;DHT22;14714;48.106;11.546;2022-12-18T11:30:37;-1.30;99.90
27200;DHT22;14714;48.106;11.546;2022-12-18T11:33:17;-1.30;99.90
27200;DHT22;14714;48.106;11.546;2022-12-18T11:35:55;-1.20;99.90
27200;DHT22;14714;48.106;11.546;2022-12-18T11:38:29;-1.20;99.90
27200;DHT22;14714;48.106;11.546;2022-12-18T11:44:09;-1.30;99.90
27200;DHT22;14714;48.106;11.546;2022-12-18T11:46:55;-1.40;99.90
27200;DHT22;14714;48.106;11.546;2022-12-18T11:49:24;-1.40;99.90
27200;DHT22;14714;48.106;11.546;2022-12-18T11:55:38;-1.40;99.90
27200;DHT22;14714;48.106;11.546;2022-12-18T12:09:30;-1.30;99.90
27200;DHT22;14714;48.106;11.546;2022-12-18T12:12:13;-1.40;99.90
27200;DHT22;14714;48.106;11.546;2022-12-18T12:17:55;-1.60;99.90
27200;DHT22;14714;48.106;11.546;2022-12-18T12:20:27;-1.60;99.90
27200;DHT22;14714;48.106;11.546;2022-12-18T12:23:12;-1.60;99.90
27200;DHT22;14714;48.106;11.546;2022-12-18T12:39:27;-1.60;99.90
27200;DHT22;14714;48.106;11.546;2022-12-18T12:41:55;-1.60;99.90
27200;DHT22;14714;48.106;11.546;2022-12-18T12:44:53;-1.50;99.90
27200;DHT22;14714;48.106;11.546;2022-12-18T12:47:42;-1.50;99.90
27200;DHT22;14714;48.106;11.546;2022-12-18T12:50:17;-1.40;99.90
27200;DHT22;14714;48.106;11.546;2022-12-18T12:52:54;-1.50;99.90
27200;DHT22;14714;48.106;11.546;2022-12-18T12:55:24;-1.40;99.90
27200;DHT22;14714;48.106;11.546;2022-12-18T12:58:28;-1.30;99.90
27200;DHT22;14714;48.106;11.546;2022-12-18T13:04:02;-1.10;99.90
27200;DHT22;14714;48.106;11.546;2022-12-18T13:06:48;-1.10;99.90
27200;DHT22;14714;48.106;11.546;2022-12-18T13:09:17;-1.10;99.90
27200;DHT22;14714;48.106;11.546;2022-12-18T13:11:46;-1.20;99.90
27200;DHT22;14714;48.106;11.546;2022-12-18T13:14:41;-1.40;99.90
27200;DHT22;14714;48.106;11.546;2022-12-18T13:17:23;-1.60;99.90
27200;DHT22;14714;48.106;11.546;2022-12-18T13:20:10;-1.80;99.90
27200;DHT22;14714;48.106;11.546;2022-12-18T13:35:52;-2.30;99.90
27200;DHT22;14714;48.106;11.546;2022-12-18T13:40:54;-2.10;99.90
27200;DHT22;14714;48.106;11.546;2022-12-18T13:48:34;-2.10;99.90
27200;DHT22;14714;48.106;11.546;2022-12-18T13:51:08;-2.10;99.90
27200;DHT22;14714;48.106;11.546;2022-12-18T13:53:42;-2.20;99.90
27200;DHT22;14714;48.106;11.546;2022-12-18T13:56:16;-2.30;99.90
27200;DHT22;14714;48.106;11.546;2022-12-18T13:58:42;-2.40;99.90
27200;DHT22;14714;48.106;11.546;2022-12-18T14:01:24;-2.30;99.90
27200;DHT22;14714;48.106;11.546;2022-12-18T14:03:51;-2.30;99.90
27200;DHT22;14714;48.106;11.546;2022-12-18T14:06:34;-2.30;99.90
27200;DHT22;14714;48.106;11.546;2022-12-18T14:09:02;-2.30;99.90
27200;DHT22;14714;48.106;11.546;2022-12-18T14:11:30;-2.50;99.90
27200;DHT22;14714;48.106;11.546;2022-12-18T14:13:57;-2.60;99.90
27200;DHT22;14714;48.106;11.546;2022-12-18T14:16:25;-2.70;99.90
27200;DHT22;14714;48.106;11.546;2022-12-18T14:18:56;-2.80;99.90
27200;DHT22;14714;48.106;11.546;2022-12-18T14:21:45;-3.00;99.90
27200;DHT22;14714;48.106;11.546;2022-12-18T14:26:47;-3.10;99.90
27200;DHT22;14714;48.106;11.546;2022-12-18T14:29:29;-3.20;99.90
27200;DHT22;14714;48.106;11.546;2022-12-18T14:32:14;-3.20;99.90
27200;DHT22;14714;48.106;11.546;2022-12-18T14:34:46;-3.20;99.90
27200;DHT22;14714;48.106;11.546;2022-12-18T14:37:16;-3.20;99.90
27200;DHT22;14714;48.106;11.546;2022-12-18T14:39:56;-3.20;99.90
27200;DHT22;14714;48.106;11.546;2022-12-18T14:42:26;-3.20;99.90
27200;DHT22;14714;48.106;11.546;2022-12-18T14:51:23;-3.30;99.90
27200;DHT22;14714;48.106;11.546;2022-12-18T14:54:02;-3.40;99.90
27200;DHT22;14714;48.106;11.546;2022-12-18T14:56:34;-3.40;99.90
27200;DHT22;14714;48.106;11.546;2022-12-18T14:59:13;-3.40;99.90
27200;DHT22;14714;48.106;11.546;2022-12-18T15:02:01;-3.40;99.90
27200;DHT22;14714;48.106;11.546;2022-12-18T15:04:36;-3.50;99.90
27200;DHT22;14714;48.106;11.546;2022-12-18T15:07:17;-3.60;99.90
27200;DHT22;14714;48.106;11.546;2022-12-18T15:17:59;-3.80;99.90
27200;DHT22;14714;48.106;11.546;2022-12-18T15:20:26;-3.80;99.90
27200;DHT22;14714;48.106;11.546;2022-12-18T15:22:53;-3.80;99.90
27200;DHT22;14714;48.106;11.546;2022-12-18T15:25:38;-3.90;99.90
27200;DHT22;14714;48.106;11.546;2022-12-18T15:28:21;-3.90;99.90
27200;DHT22;14714;48.106;11.546;2022-12-18T15:31:28;-3.90;99.90
27200;DHT22;14714;48.106;11.546;2022-12-18T15:36:23;-3.90;99.90
27200;DHT22;14714;48.106;11.546;2022-12-18T15:38:54;-3.80;99.90
27200;DHT22;14714;48.106;11.546;2022-12-18T15:41:35;-3.80;99.90
27200;DHT22;14714;48.106;11.546;2022-12-18T15:44:03;-3.80;99.90
27200;DHT22;14714;48.106;11.546;2022-12-18T15:46:43;-3.80;99.90
27200;DHT22;14714;48.106;11.546;2022-12-18T15:49:10;-3.90;99.90
27200;DHT22;14714;48.106;11.546;2022-12-18T15:51:37;-3.90;99.90
27200;DHT22;14714;48.106;11.546;2022-12-18T15:54:08;-3.90;99.90
27200;DHT22;14714;48.106;11.546;2022-12-18T15:56:35;-4.00;99.90
27200;DHT22;14714;48.106;11.546;2022-12-18T15:59:22;-4.00;99.90
27200;DHT22;14714;48.106;11.546;2022-12-18T16:01:51;-4.10;99.90
27200;DHT22;14714;48.106;11.546;2022-12-18T16:04:20;-4.10;99.90
27200;DHT22;14714;48.106;11.546;2022-12-18T16:06:48;-4.10;99.90
27200;DHT22;14714;48.106;11.546;2022-12-18T16:09:35;-4.10;99.90
27200;DHT22;14714;48.106;11.546;2022-12-18T16:12:02;-4.10;99.90
27200;DHT22;14714;48.106;11.546;2022-12-18T16:14:30;-4.20;99.90
27200;DHT22;14714;48.106;11.546;2022-12-18T16:16:59;-4.20;99.90
27200;DHT22;14714;48.106;11.546;2022-12-18T16:19:27;-4.20;99.90
27200;DHT22;14714;48.106;11.546;2022-12-18T16:21:55;-4.10;99.90
27200;DHT22;14714;48.106;11.546;2022-12-18T16:24:24;-4.10;99.90
27200;DHT22;14714;48.106;11.546;2022-12-18T16:26:53;-4.00;99.90
27200;DHT22;14714;48.106;11.546;2022-12-18T16:29:21;-4.00;99.90
27200;DHT22;14714;48.106;11.546;2022-12-18T16:31:51;-3.90;99.90
27200;DHT22;14714;48.106;11.546;2022-12-18T16:34:23;-3.90;99.90
27200;DHT22;14714;48.106;11.546;2022-12-18T16:36:59;-3.90;99.90
27200;DHT22;14714;48.106;11.546;2022-12-18T16:39:31;-3.80;99.90
27200;DHT22;14714;48.106;11.546;2022-12-18T16:42:00;-3.80;99.90
27200;DHT22;14714;48.106;11.546;2022-12-18T16:44:32;-3.80;99.90
27200;DHT22;14714;48.106;11.546;2022-12-18T16:46:59;-3.70;99.90
27200;DHT22;14714;48.106;11.546;2022-12-18T16:49:29;-3.70;99.90
27200;DHT22;14714;48.106;11.546;2022-12-18T16:51:56;-3.80;99.90
27200;DHT22;14714;48.106;11.546;2022-12-18T16:54:22;-3.80;99.90
27200;DHT22;14714;48.106;11.546;2022-12-18T16:56:50;-3.80;99.90
27200;DHT22;14714;48.106;11.546;2022-12-18T16:59:17;-3.80;99.90
27200;DHT22;14714;48.106;11.546;2022-12-18T17:01:45;-3.80;99.90
27200;DHT22;14714;48.106;11.546;2022-12-18T17:04:12;-3.90;99.90
27200;DHT22;14714;48.106;11.546;2022-12-18T17:06:41;-3.90;99.90
27200;DHT22;14714;48.106;11.546;2022-12-18T17:09:13;-3.90;99.90
27200;DHT22;14714;48.106;11.546;2022-12-18T17:11:41;-3.90;99.90
27200;DHT22;14714;48.106;11.546;2022-12-18T17:14:12;-3.90;99.90
27200;DHT22;14714;48.106;11.546;2022-12-18T17:16:39;-3.90;99.90
27200;DHT22;14714;48.106;11.546;2022-12-18T17:19:06;-3.90;99.90
27200;DHT22;14714;48.106;11.546;2022-12-18T17:21:41;-3.90;99.90
27200;DHT22;14714;48.106;11.546;2022-12-18T17:24:08;-3.80;99.90
27200;DHT22;14714;48.106;11.546;2022-12-18T17:26:36;-3.80;99.90
27200;DHT22;14714;48.106;11.546;2022-12-18T17:29:03;-3.80;99.90